createdAt,value
2023-05-13T00:01:38.731Z,98746.09
2023-05-13T00:04:08.807Z,98750.59
2023-05-13T00:06:36.663Z,98747.69
2023-05-13T00:09:05.401Z,98751.50
2023-05-13T00:11:34.380Z,98750.22
2023-05-13T00:14:01.168Z,98751.75
2023-05-13T00:16:29.385Z,98749.16
2023-05-13T00:18:56.560Z,98749.91
2023-05-13T00:21:23.742Z,98762.72
2023-05-13T00:23:50.920Z,98751.34
2023-05-13T00:26:17.827Z,98757.09
2023-05-13T00:28:47.496Z,98749.88
2023-05-13T00:31:14.412Z,98748.28
2023-05-13T00:33:42.854Z,98753.03
2023-05-13T00:36:28.756Z,98752.38
2023-05-13T00:38:55.701Z,98752.06
2023-05-13T00:41:23.217Z,98756.50
2023-05-13T00:43:53.755Z,98752.03
2023-05-13T00:46:20.828Z,98758.72
2023-05-13T00:48:49.911Z,98755.91
2023-05-13T00:51:17.611Z,98755.25
2023-05-13T00:53:45.427Z,98742.56
2023-05-13T00:56:12.245Z,98743.91
2023-05-13T00:58:39.032Z,98746.00
2023-05-13T01:01:25.115Z,98750.00
2023-05-13T01:03:58.400Z,98751.44
2023-05-13T01:07:01.026Z,98756.38
2023-05-13T01:09:43.659Z,98750.63
2023-05-13T01:12:21.544Z,98760.22
2023-05-13T01:15:16.361Z,98754.47
2023-05-13T01:17:55.419Z,98759.16
2023-05-13T01:20:25.656Z,98760.50
2023-05-13T01:22:52.754Z,98755.78
2023-05-13T01:25:22.179Z,98757.00
2023-05-13T01:27:50.237Z,98753.81
2023-05-13T01:30:17.802Z,98752.41
2023-05-13T01:32:46.170Z,98754.53
2023-05-13T01:35:15.357Z,98758.63
2023-05-13T01:37:43.383Z,98759.38
2023-05-13T01:40:24.288Z,98760.91
2023-05-13T01:43:01.686Z,98757.50
2023-05-13T01:45:30.157Z,98760.59
2023-05-13T01:47:57.038Z,98758.59
2023-05-13T01:50:24.301Z,98766.13
2023-05-13T01:52:51.350Z,98769.25
2023-05-13T01:55:19.449Z,98772.44
2023-05-13T01:57:46.528Z,98775.59
2023-05-13T02:00:20.212Z,98775.88
2023-05-13T02:02:50.769Z,98771.28
2023-05-13T02:05:17.861Z,98766.97
2023-05-13T02:07:44.994Z,98768.00
2023-05-13T02:10:11.958Z,98769.88
2023-05-13T02:12:41.414Z,98767.88
2023-05-13T02:15:11.364Z,98775.81
2023-05-13T02:17:38.300Z,98769.28
2023-05-13T02:20:06.227Z,98766.47
2023-05-13T02:22:33.097Z,98767.78
2023-05-13T02:24:59.896Z,98769.59
2023-05-13T02:27:26.918Z,98770.38
2023-05-13T02:29:56.281Z,98770.19
2023-05-13T02:32:23.145Z,98774.31
2023-05-13T02:34:49.863Z,98766.59
2023-05-13T02:37:17.368Z,98772.50
2023-05-13T02:39:46.960Z,98770.91
2023-05-13T02:42:13.763Z,98778.34
2023-05-13T02:44:40.592Z,98769.38
2023-05-13T02:47:07.404Z,98762.97
2023-05-13T02:49:36.414Z,98774.81
2023-05-13T02:52:03.435Z,98768.91
2023-05-13T02:54:30.221Z,98770.00
2023-05-13T02:56:57.150Z,98762.38
2023-05-13T02:59:23.972Z,98766.97
2023-05-13T03:01:50.821Z,98761.38
2023-05-13T03:04:17.675Z,98763.06
2023-05-13T03:06:47.341Z,98760.75
2023-05-13T03:09:14.114Z,98767.66
2023-05-13T03:11:42.127Z,98771.78
2023-05-13T03:14:11.557Z,98777.34
2023-05-13T03:16:38.507Z,98772.31
2023-05-13T03:19:05.450Z,98774.31
2023-05-13T03:21:35.420Z,98779.94
2023-05-13T03:24:02.265Z,98777.59
2023-05-13T03:26:29.086Z,98783.63
2023-05-13T03:28:56.076Z,98783.31
2023-05-13T03:31:23.567Z,98786.97
2023-05-13T03:33:52.685Z,98789.66
2023-05-13T03:36:19.506Z,98785.44
2023-05-13T03:38:46.284Z,98787.03
2023-05-13T03:41:13.293Z,98788.22
2023-05-13T03:43:40.728Z,98792.75
2023-05-13T03:46:07.543Z,98795.84
2023-05-13T03:48:34.367Z,98796.19
2023-05-13T03:51:02.063Z,98800.84
2023-05-13T03:53:28.970Z,98800.34
2023-05-13T03:55:55.740Z,98796.09
2023-05-13T03:58:22.715Z,98806.72
2023-05-13T04:00:49.894Z,98798.59
2023-05-13T04:03:17.628Z,98804.09
2023-05-13T04:05:48.840Z,98807.91
2023-05-13T04:08:15.812Z,98806.97
2023-05-13T04:10:42.802Z,98807.91
2023-05-13T04:13:09.734Z,98809.97
2023-05-13T04:15:36.673Z,98804.06
2023-05-13T04:18:03.686Z,98806.25
2023-05-13T04:20:30.609Z,98816.00
2023-05-13T04:22:57.849Z,98813.50
2023-05-13T04:25:24.976Z,98811.09
2023-05-13T04:27:51.941Z,98822.34
2023-05-13T04:30:18.903Z,98815.25
2023-05-13T04:32:46.109Z,98812.97
2023-05-13T04:35:12.976Z,98819.94
2023-05-13T04:37:39.738Z,98816.41
2023-05-13T04:40:08.219Z,98821.97
2023-05-13T04:42:35.198Z,98821.53
2023-05-13T04:45:02.451Z,98823.44
2023-05-13T04:47:35.266Z,98823.13
2023-05-13T04:50:02.172Z,98826.09
2023-05-13T04:52:29.515Z,98827.97
2023-05-13T04:54:59.218Z,98832.22
2023-05-13T04:57:25.993Z,98831.63
2023-05-13T04:59:52.837Z,98829.66
2023-05-13T05:02:20.264Z,98831.03
2023-05-13T05:04:49.227Z,98834.97
2023-05-13T05:07:16.091Z,98832.91
2023-05-13T05:09:45.489Z,98840.69
2023-05-13T05:12:12.580Z,98842.56
2023-05-13T05:14:39.938Z,98847.44
2023-05-13T05:17:07.625Z,98853.13
2023-05-13T05:19:37.965Z,98852.63
2023-05-13T05:22:07.972Z,98861.66
2023-05-13T05:24:36.858Z,98859.75
2023-05-13T05:27:04.256Z,98865.22
2023-05-13T05:29:33.916Z,98864.78
2023-05-13T05:32:01.149Z,98868.13
2023-05-13T05:34:30.967Z,98864.22
2023-05-13T05:36:57.792Z,98867.84
2023-05-13T05:39:24.567Z,98876.41
2023-05-13T05:41:56.331Z,98875.31
2023-05-13T05:44:23.081Z,98871.22
2023-05-13T05:46:49.951Z,98874.72
2023-05-13T05:49:16.660Z,98872.31
2023-05-13T05:51:43.433Z,98872.94
2023-05-13T05:54:10.206Z,98871.13
2023-05-13T05:56:37.028Z,98878.56
2023-05-13T05:59:03.804Z,98866.72
2023-05-13T06:01:36.507Z,98875.03
2023-05-13T06:04:04.380Z,98876.03
2023-05-13T06:06:32.268Z,98865.19
2023-05-13T06:08:59.141Z,98867.78
2023-05-13T06:11:26.212Z,98875.13
2023-05-13T06:13:54.255Z,98879.66
2023-05-13T06:16:21.152Z,98870.66
2023-05-13T06:18:47.979Z,98875.25
2023-05-13T06:21:15.210Z,98868.72
2023-05-13T06:23:42.312Z,98862.56
2023-05-13T06:26:10.136Z,98867.09
2023-05-13T06:28:37.245Z,98869.44
2023-05-13T06:31:04.053Z,98876.00
2023-05-13T06:33:30.871Z,98877.78
2023-05-13T06:35:57.697Z,98877.53
2023-05-13T06:38:24.558Z,98878.84
2023-05-13T06:40:51.453Z,98885.53
2023-05-13T06:43:18.760Z,98891.25
2023-05-13T06:45:45.690Z,98882.56
2023-05-13T06:48:14.228Z,98890.13
2023-05-13T06:50:41.003Z,98886.69
2023-05-13T06:53:09.508Z,98893.28
2023-05-13T06:55:41.323Z,98888.41
2023-05-13T06:58:09.668Z,98887.16
2023-05-13T07:00:40.249Z,98892.09
2023-05-13T07:03:07.765Z,98890.97
2023-05-13T07:05:35.849Z,98890.78
2023-05-13T07:08:06.918Z,98885.69
2023-05-13T07:10:34.805Z,98879.13
2023-05-13T07:13:03.028Z,98890.16
2023-05-13T07:15:29.877Z,98897.22
2023-05-13T07:17:56.707Z,98889.03
2023-05-13T07:20:24.036Z,98896.06
2023-05-13T07:22:51.946Z,98888.75
2023-05-13T07:25:19.168Z,98897.56
2023-05-13T07:27:46.112Z,98899.53
2023-05-13T07:30:13.774Z,98899.25
2023-05-13T07:32:41.179Z,98899.31
2023-05-13T07:35:09.804Z,98904.59
2023-05-13T07:37:39.310Z,98902.69
2023-05-13T07:40:07.798Z,98905.25
2023-05-13T07:42:35.225Z,98896.94
2023-05-13T07:45:02.441Z,98897.13
2023-05-13T07:47:31.277Z,98904.66
2023-05-13T07:49:58.109Z,98900.63
2023-05-13T07:52:25.735Z,98899.69
2023-05-13T07:54:52.495Z,98899.72
2023-05-13T07:57:19.289Z,98904.25
2023-05-13T07:59:46.054Z,98903.75
2023-05-13T08:02:13.046Z,98904.94
2023-05-13T08:04:39.972Z,98912.63
2023-05-13T08:07:09.439Z,98902.41
2023-05-13T08:09:36.317Z,98904.41
2023-05-13T08:12:03.199Z,98906.78
2023-05-13T08:14:29.994Z,98905.50
2023-05-13T08:16:56.824Z,98899.91
2023-05-13T08:19:23.650Z,98903.91
2023-05-13T08:21:50.560Z,98899.13
2023-05-13T08:24:17.398Z,98903.78
2023-05-13T08:26:44.203Z,98905.22
2023-05-13T08:29:16.040Z,98900.56
2023-05-13T08:31:43.002Z,98906.81
2023-05-13T08:34:09.982Z,98904.88
2023-05-13T08:36:36.961Z,98913.84
2023-05-13T08:39:03.980Z,98909.78
2023-05-13T08:41:31.865Z,98903.91
2023-05-13T08:44:00.719Z,98919.47
2023-05-13T08:46:32.856Z,98911.63
2023-05-13T08:49:01.639Z,98914.38
2023-05-13T08:51:28.594Z,98908.44
2023-05-13T08:53:56.282Z,98914.84
2023-05-13T08:56:25.632Z,98914.72
2023-05-13T08:58:52.460Z,98916.50
2023-05-13T09:01:19.477Z,98912.78
2023-05-13T09:03:59.930Z,98914.59
2023-05-13T09:06:26.909Z,98910.56
2023-05-13T09:08:55.187Z,98917.00
2023-05-13T09:11:23.125Z,98916.50
2023-05-13T09:14:01.485Z,98917.63
2023-05-13T09:16:29.895Z,98923.72
2023-05-13T09:19:00.298Z,98922.78
2023-05-13T09:21:35.366Z,98928.56
2023-05-13T09:24:18.094Z,98924.88
2023-05-13T09:26:46.102Z,98924.69
2023-05-13T09:29:20.400Z,98923.91
2023-05-13T09:31:55.214Z,98922.78
2023-05-13T09:34:35.342Z,98923.91
2023-05-13T09:37:09.295Z,98929.03
2023-05-13T09:39:41.780Z,98927.28
2023-05-13T09:42:19.493Z,98929.19
2023-05-13T09:44:47.367Z,98923.09
2023-05-13T09:47:15.406Z,98919.06
2023-05-13T09:49:44.316Z,98917.31
2023-05-13T09:52:13.450Z,98920.53
2023-05-13T09:54:40.360Z,98925.69
2023-05-13T09:57:07.166Z,98927.28
2023-05-13T09:59:35.225Z,98925.50
2023-05-13T10:02:06.719Z,98928.56
2023-05-13T10:04:34.199Z,98931.44
2023-05-13T10:07:04.929Z,98934.00
2023-05-13T10:09:39.049Z,98938.16
2023-05-13T10:12:09.538Z,98929.19
2023-05-13T10:14:38.093Z,98936.75
2023-05-13T10:17:09.424Z,98938.69
2023-05-13T10:19:37.437Z,98940.59
2023-05-13T10:22:05.670Z,98929.38
2023-05-13T10:24:33.759Z,98929.97
2023-05-13T10:27:02.523Z,98931.53
2023-05-13T10:29:30.101Z,98927.97
2023-05-13T10:31:58.833Z,98933.50
2023-05-13T10:34:27.353Z,98926.66
2023-05-13T10:37:51.294Z,98934.03
2023-05-13T10:40:44.383Z,98932.00
2023-05-13T10:43:43.891Z,98930.03
2023-05-13T10:46:14.006Z,98933.50
2023-05-13T10:48:50.791Z,98932.44
2023-05-13T10:51:23.971Z,98930.44
2023-05-13T10:53:56.562Z,98934.88
2023-05-13T10:56:26.906Z,98934.72
2023-05-13T10:59:05.457Z,98938.09
2023-05-13T11:01:44.388Z,98930.09
2023-05-13T11:04:17.274Z,98931.78
2023-05-13T11:06:49.219Z,98924.34
2023-05-13T11:09:30.692Z,98928.91
2023-05-13T11:11:59.954Z,98923.84
2023-05-13T11:14:30.199Z,98934.38
2023-05-13T11:17:00.031Z,98924.88
2023-05-13T11:19:39.180Z,98919.06
2023-05-13T11:22:15.573Z,98923.69
2023-05-13T11:25:04.060Z,98923.34
2023-05-13T11:27:38.657Z,98928.84
2023-05-13T11:30:24.028Z,98920.72
2023-05-13T11:32:51.285Z,98928.72
2023-05-13T11:35:30.332Z,98929.53
2023-05-13T11:38:00.709Z,98926.31
2023-05-13T11:40:33.018Z,98924.03
2023-05-13T11:43:01.640Z,98920.69
2023-05-13T11:45:30.297Z,98925.66
2023-05-13T11:47:57.832Z,98922.38
2023-05-13T11:50:32.887Z,98919.72
2023-05-13T11:53:01.973Z,98924.06
2023-05-13T11:55:37.618Z,98915.78
2023-05-13T11:58:04.597Z,98924.31
2023-05-13T12:00:34.549Z,98920.03
2023-05-13T12:03:09.924Z,98919.44
2023-05-13T12:05:37.064Z,98920.31
2023-05-13T12:08:04.371Z,98921.91
2023-05-13T12:10:31.519Z,98919.84
2023-05-13T12:12:58.653Z,98923.25
2023-05-13T12:15:26.098Z,98923.25
2023-05-13T12:17:54.619Z,98926.66
2023-05-13T12:20:23.969Z,98916.38
2023-05-13T12:22:56.949Z,98920.97
2023-05-13T12:25:45.470Z,98913.66
2023-05-13T12:28:26.840Z,98909.38
2023-05-13T12:31:03.043Z,98908.41
2023-05-13T12:33:42.634Z,98914.81
2023-05-13T12:36:34.009Z,98913.13
2023-05-13T12:39:11.141Z,98915.44
2023-05-13T12:41:40.893Z,98906.00
2023-05-13T12:44:16.308Z,98914.69
2023-05-13T12:46:57.790Z,98917.38
2023-05-13T12:49:25.220Z,98922.97
2023-05-13T12:51:52.010Z,98919.31
2023-05-13T12:54:18.983Z,98922.38
2023-05-13T12:56:46.153Z,98917.34
2023-05-13T12:59:14.295Z,98916.31
2023-05-13T13:01:42.776Z,98918.47
2023-05-13T13:04:09.999Z,98915.06
2023-05-13T13:06:37.056Z,98908.09
2023-05-13T13:09:04.095Z,98916.16
2023-05-13T13:11:30.895Z,98911.59
2023-05-13T13:13:57.613Z,98901.91
2023-05-13T13:16:24.646Z,98900.31
2023-05-13T13:18:53.445Z,98908.06
2023-05-13T13:21:22.557Z,98901.00
2023-05-13T13:23:49.474Z,98902.16
2023-05-13T13:26:16.330Z,98896.06
2023-05-13T13:28:43.146Z,98900.06
2023-05-13T13:31:11.649Z,98892.75
2023-05-13T13:33:38.423Z,98887.50
2023-05-13T13:36:05.717Z,98882.59
2023-05-13T13:38:32.529Z,98880.44
2023-05-13T13:40:59.366Z,98873.25
2023-05-13T13:43:26.750Z,98866.63
2023-05-13T13:45:53.875Z,98868.22
2023-05-13T13:48:21.587Z,98866.06
2023-05-13T13:50:49.780Z,98863.78
2023-05-13T13:53:17.454Z,98862.63
2023-05-13T13:55:44.330Z,98868.22
2023-05-13T13:58:11.150Z,98866.03
2023-05-13T14:00:37.986Z,98861.16
2023-05-13T14:03:04.958Z,98866.09
2023-05-13T14:05:31.945Z,98862.59
2023-05-13T14:07:58.762Z,98868.09
2023-05-13T14:10:25.536Z,98875.50
2023-05-13T14:12:53.178Z,98873.03
2023-05-13T14:15:19.928Z,98870.31
2023-05-13T14:17:46.772Z,98871.78
2023-05-13T14:20:13.605Z,98877.75
2023-05-13T14:22:40.504Z,98871.59
2023-05-13T14:25:09.249Z,98867.41
2023-05-13T14:27:36.569Z,98870.41
2023-05-13T14:30:05.553Z,98864.88
2023-05-13T14:32:33.374Z,98864.66
2023-05-13T14:35:00.448Z,98858.94
2023-05-13T14:37:27.433Z,98860.31
2023-05-13T14:39:54.308Z,98849.72
2023-05-13T14:42:21.637Z,98853.81
2023-05-13T14:44:48.457Z,98854.16
2023-05-13T14:47:21.117Z,98851.00
2023-05-13T14:49:47.897Z,98840.03
2023-05-13T14:52:14.624Z,98841.91
2023-05-13T14:54:42.549Z,98843.22
2023-05-13T14:57:09.816Z,98836.66
2023-05-13T14:59:36.943Z,98829.69
2023-05-13T15:02:04.206Z,98822.47
2023-05-13T15:04:31.128Z,98826.69
2023-05-13T15:06:58.597Z,98821.38
2023-05-13T15:09:26.528Z,98820.19
2023-05-13T15:11:53.385Z,98821.25
2023-05-13T15:14:25.547Z,98815.38
2023-05-13T15:16:53.378Z,98822.94
2023-05-13T15:19:20.415Z,98823.38
2023-05-13T15:21:47.165Z,98818.53
2023-05-13T15:24:14.037Z,98820.59
2023-05-13T15:26:40.850Z,98820.72
2023-05-13T15:29:07.669Z,98819.81
2023-05-13T15:31:34.976Z,98812.16
2023-05-13T15:34:03.124Z,98814.41
2023-05-13T15:36:29.894Z,98819.09
2023-05-13T15:38:56.714Z,98815.72
2023-05-13T15:41:23.532Z,98814.03
2023-05-13T15:43:50.328Z,98805.53
2023-05-13T15:46:17.197Z,98810.28
2023-05-13T15:48:44.064Z,98812.22
2023-05-13T15:51:18.356Z,98800.44
2023-05-13T15:53:45.396Z,98802.19
2023-05-13T15:56:12.441Z,98804.31
2023-05-13T15:58:39.177Z,98807.38
2023-05-13T16:01:07.032Z,98805.34
2023-05-13T16:03:34.194Z,98796.34
2023-05-13T16:06:02.018Z,98802.25
2023-05-13T16:08:28.912Z,98787.94
2023-05-13T16:10:55.706Z,98789.00
2023-05-13T16:13:22.674Z,98800.75
2023-05-13T16:15:49.717Z,98793.59
2023-05-13T16:18:16.619Z,98795.31
2023-05-13T16:20:43.529Z,98796.34
2023-05-13T16:23:10.320Z,98794.09
2023-05-13T16:25:38.945Z,98798.44
2023-05-13T16:28:06.086Z,98801.63
2023-05-13T16:30:33.312Z,98804.28
2023-05-13T16:33:02.783Z,98807.56
2023-05-13T16:35:29.798Z,98801.13
2023-05-13T16:37:56.588Z,98801.50
2023-05-13T16:40:24.163Z,98810.03
2023-05-13T16:42:51.493Z,98812.88
2023-05-13T16:45:18.933Z,98810.78
2023-05-13T16:47:45.805Z,98798.91
2023-05-13T16:50:12.701Z,98807.13
2023-05-13T16:52:39.792Z,98803.22
2023-05-13T16:55:07.504Z,98807.00
2023-05-13T16:57:34.522Z,98803.13
2023-05-13T17:00:01.630Z,98808.59
2023-05-13T17:02:29.326Z,98814.06
2023-05-13T17:04:59.402Z,98803.91
2023-05-13T17:07:26.284Z,98803.44
2023-05-13T17:09:53.191Z,98807.53
2023-05-13T17:12:20.008Z,98804.81
2023-05-13T17:14:46.794Z,98805.16
2023-05-13T17:17:13.663Z,98808.81
2023-05-13T17:19:42.700Z,98809.28
2023-05-13T17:22:09.758Z,98811.19
2023-05-13T17:24:38.382Z,98803.13
2023-05-13T17:27:05.908Z,98806.75
2023-05-13T17:29:32.921Z,98807.09
2023-05-13T17:32:02.388Z,98801.75
2023-05-13T17:34:31.273Z,98810.41
2023-05-13T17:36:58.122Z,98804.25
2023-05-13T17:39:27.440Z,98800.94
2023-05-13T17:41:54.387Z,98803.88
2023-05-13T17:44:22.721Z,98807.50
2023-05-13T17:46:49.468Z,98798.63
2023-05-13T17:49:17.989Z,98803.31
2023-05-13T17:51:44.763Z,98808.31
2023-05-13T17:54:11.617Z,98806.03
2023-05-13T17:56:38.716Z,98809.00
2023-05-13T17:59:06.924Z,98809.53
2023-05-13T18:01:34.041Z,98810.00
2023-05-13T18:04:01.598Z,98801.78
2023-05-13T18:06:28.416Z,98812.00
2023-05-13T18:08:55.817Z,98807.94
2023-05-13T18:11:22.645Z,98808.91
2023-05-13T18:13:49.421Z,98809.91
2023-05-13T18:16:19.280Z,98805.25
2023-05-13T18:18:48.429Z,98813.66
2023-05-13T18:21:15.647Z,98809.66
2023-05-13T18:23:44.271Z,98808.97
2023-05-13T18:26:11.118Z,98812.38
2023-05-13T18:28:38.973Z,98815.78
2023-05-13T18:31:05.853Z,98816.34
2023-05-13T18:33:32.596Z,98818.13
2023-05-13T18:35:59.354Z,98816.84
2023-05-13T18:38:26.102Z,98815.59
2023-05-13T18:40:52.948Z,98822.03
2023-05-13T18:43:19.910Z,98820.44
2023-05-13T18:45:46.843Z,98824.50
2023-05-13T18:48:16.305Z,98825.50
2023-05-13T18:50:43.522Z,98816.88
2023-05-13T18:53:10.328Z,98817.06
2023-05-13T18:55:37.292Z,98827.06
2023-05-13T18:58:05.145Z,98833.16
2023-05-13T19:00:32.159Z,98833.66
2023-05-13T19:02:59.103Z,98832.03
2023-05-13T19:05:26.049Z,98837.03
2023-05-13T19:07:57.087Z,98834.31
2023-05-13T19:10:26.472Z,98843.44
2023-05-13T19:12:53.260Z,98843.28
2023-05-13T19:15:21.303Z,98835.75
2023-05-13T19:17:53.091Z,98843.66
2023-05-13T19:20:20.504Z,98853.31
2023-05-13T19:22:47.505Z,98843.53
2023-05-13T19:25:15.201Z,98845.31
2023-05-13T19:27:42.548Z,98844.19
2023-05-13T19:30:10.557Z,98847.69
2023-05-13T19:32:39.412Z,98842.88
2023-05-13T19:35:07.100Z,98851.91
2023-05-13T19:37:35.426Z,98852.72
2023-05-13T19:40:03.368Z,98850.19
2023-05-13T19:42:30.191Z,98860.44
2023-05-13T19:44:56.909Z,98860.44
2023-05-13T19:47:26.596Z,98862.72
2023-05-13T19:49:53.535Z,98860.16
2023-05-13T19:52:20.757Z,98870.59
2023-05-13T19:54:47.938Z,98865.63
2023-05-13T19:57:15.540Z,98868.03
2023-05-13T19:59:42.668Z,98858.09
2023-05-13T20:02:09.677Z,98867.88
2023-05-13T20:04:37.152Z,98865.00
2023-05-13T20:07:04.295Z,98864.06
2023-05-13T20:09:31.270Z,98873.66
2023-05-13T20:11:58.147Z,98863.25
2023-05-13T20:14:40.870Z,98866.31
2023-05-13T20:17:08.503Z,98874.31
2023-05-13T20:19:36.642Z,98883.47
2023-05-13T20:22:04.084Z,98874.34
2023-05-13T20:24:30.988Z,98876.25
2023-05-13T20:27:00.770Z,98878.00
2023-05-13T20:29:34.249Z,98878.19
2023-05-13T20:32:01.228Z,98872.09
2023-05-13T20:34:28.070Z,98871.59
2023-05-13T20:36:54.961Z,98874.66
2023-05-13T20:39:21.845Z,98870.47
2023-05-13T20:41:48.650Z,98869.66
2023-05-13T20:44:16.975Z,98873.34
2023-05-13T20:46:44.643Z,98867.38
2023-05-13T20:49:13.775Z,98877.00
2023-05-13T20:51:41.384Z,98875.69
2023-05-13T20:54:10.582Z,98877.84
2023-05-13T20:56:40.516Z,98872.41
2023-05-13T20:59:07.964Z,98878.19
2023-05-13T21:01:36.032Z,98884.16
2023-05-13T21:04:06.165Z,98892.31
2023-05-13T21:06:33.203Z,98883.34
2023-05-13T21:09:00.039Z,98888.00
2023-05-13T21:11:27.040Z,98888.47
2023-05-13T21:13:54.128Z,98885.22
2023-05-13T21:16:21.261Z,98880.88
2023-05-13T21:18:48.344Z,98876.28
2023-05-13T21:21:15.315Z,98878.03
2023-05-13T21:23:45.788Z,98881.88
2023-05-13T21:26:13.360Z,98878.03
2023-05-13T21:28:40.321Z,98865.53
2023-05-13T21:31:07.351Z,98872.56
2023-05-13T21:33:34.228Z,98862.50
2023-05-13T21:36:00.971Z,98863.28
2023-05-13T21:38:28.116Z,98858.81
2023-05-13T21:40:58.739Z,98864.47
2023-05-13T21:43:25.723Z,98865.56
2023-05-13T21:45:54.957Z,98874.53
2023-05-13T21:48:21.821Z,98865.75
2023-05-13T21:50:48.670Z,98871.50
2023-05-13T21:53:15.449Z,98869.91
2023-05-13T21:55:42.253Z,98863.50
2023-05-13T21:58:09.175Z,98870.25
2023-05-13T22:00:35.992Z,98860.00
2023-05-13T22:03:03.417Z,98863.16
2023-05-13T22:05:30.423Z,98869.84
2023-05-13T22:07:57.518Z,98873.06
2023-05-13T22:10:24.802Z,98861.38
2023-05-13T22:12:51.742Z,98864.06
2023-05-13T22:15:18.533Z,98860.81
2023-05-13T22:17:46.397Z,98858.38
2023-05-13T22:20:15.291Z,98850.50
2023-05-13T22:22:42.079Z,98851.44
2023-05-13T22:25:09.185Z,98845.06
2023-05-13T22:27:36.078Z,98841.06
2023-05-13T22:30:02.982Z,98839.75
2023-05-13T22:32:29.889Z,98845.19
2023-05-13T22:34:57.074Z,98840.19
2023-05-13T22:37:23.918Z,98845.50
2023-05-13T22:39:50.952Z,98842.63
2023-05-13T22:42:17.817Z,98837.47
2023-05-13T22:44:45.012Z,98840.53
2023-05-13T22:47:11.864Z,98840.53
2023-05-13T22:49:38.805Z,98834.25
2023-05-13T22:52:06.295Z,98839.44
2023-05-13T22:54:33.109Z,98839.31
2023-05-13T22:57:00.150Z,98836.94
2023-05-13T22:59:27.523Z,98835.00
2023-05-13T23:01:54.316Z,98835.63
2023-05-13T23:04:21.106Z,98827.47
2023-05-13T23:06:47.959Z,98831.63
2023-05-13T23:09:14.780Z,98828.91
2023-05-13T23:11:43.660Z,98819.13
2023-05-13T23:14:13.723Z,98817.03
2023-05-13T23:16:40.582Z,98808.25
2023-05-13T23:19:10.681Z,98815.28
2023-05-13T23:21:37.462Z,98810.66
2023-05-13T23:24:04.350Z,98805.69
2023-05-13T23:26:31.591Z,98806.81
2023-05-13T23:28:58.363Z,98805.88
2023-05-13T23:31:25.581Z,98811.50
2023-05-13T23:33:52.591Z,98811.75
2023-05-13T23:36:19.372Z,98807.38
2023-05-13T23:38:46.404Z,98807.38
2023-05-13T23:41:13.146Z,98802.72
2023-05-13T23:43:39.991Z,98803.78
2023-05-13T23:46:07.030Z,98784.88
2023-05-13T23:48:33.829Z,98786.50
2023-05-13T23:51:03.818Z,98786.78
2023-05-13T23:53:30.553Z,98780.84
2023-05-13T23:55:57.538Z,98782.78
2023-05-13T23:58:24.480Z,98778.41
